createdAt,value
2024-03-02T00:01:38.174Z,100.00
2024-03-02T00:04:08.226Z,100.00
2024-03-02T00:06:36.599Z,100.00
2024-03-02T00:09:04.873Z,100.00
2024-03-02T00:11:37.252Z,100.00
2024-03-02T00:14:05.520Z,100.00
2024-03-02T00:16:33.996Z,100.00
2024-03-02T00:19:07.248Z,100.00
2024-03-02T00:21:36.180Z,100.00
2024-03-02T00:24:35.292Z,100.00
2024-03-02T00:27:05.398Z,100.00
2024-03-02T00:29:33.569Z,100.00
2024-03-02T00:32:02.467Z,100.00
2024-03-02T00:34:30.637Z,100.00
2024-03-02T00:37:01.292Z,100.00
2024-03-02T00:39:30.361Z,100.00
2024-03-02T00:41:58.524Z,100.00
2024-03-02T00:44:35.510Z,100.00
2024-03-02T00:47:04.390Z,100.00
2024-03-02T00:49:32.569Z,100.00
2024-03-02T00:52:00.796Z,100.00
2024-03-02T00:54:30.282Z,100.00
2024-03-02T00:56:58.621Z,100.00
2024-03-02T00:59:28.427Z,100.00
2024-03-02T01:01:56.635Z,100.00
2024-03-02T01:04:26.212Z,100.00
2024-03-02T01:06:54.541Z,100.00
2024-03-02T01:09:22.785Z,100.00
2024-03-02T01:11:51.141Z,100.00
2024-03-02T01:14:19.320Z,100.00
2024-03-02T01:16:47.486Z,100.00
2024-03-02T01:19:16.358Z,100.00
2024-03-02T01:21:44.798Z,100.00
2024-03-02T01:24:14.765Z,100.00
2024-03-02T01:26:43.046Z,100.00
2024-03-02T01:29:11.120Z,100.00
2024-03-02T01:31:41.124Z,100.00
2024-03-02T01:34:09.838Z,100.00
2024-03-02T01:36:38.018Z,100.00
2024-03-02T01:39:10.267Z,100.00
2024-03-02T01:41:38.552Z,100.00
2024-03-02T01:44:06.921Z,100.00
2024-03-02T01:46:36.237Z,100.00
2024-03-02T01:49:04.430Z,100.00
2024-03-02T01:51:33.096Z,100.00
2024-03-02T01:54:01.253Z,100.00
2024-03-02T01:56:29.405Z,100.00
2024-03-02T01:58:57.475Z,100.00
2024-03-02T02:01:25.590Z,100.00
2024-03-02T02:03:53.872Z,100.00
2024-03-02T02:06:22.978Z,100.00
2024-03-02T02:08:51.189Z,100.00
2024-03-02T02:11:19.476Z,100.00
2024-03-02T02:13:47.639Z,100.00
2024-03-02T02:16:15.826Z,100.00
2024-03-02T02:18:44.348Z,100.00
2024-03-02T02:21:12.566Z,100.00
2024-03-02T02:23:40.836Z,100.00
2024-03-02T02:26:09.022Z,100.00
2024-03-02T02:28:37.412Z,100.00
2024-03-02T02:31:05.601Z,100.00
2024-03-02T02:33:33.986Z,100.00
2024-03-02T02:36:02.316Z,100.00
2024-03-02T02:38:30.616Z,100.00
2024-03-02T02:40:59.219Z,100.00
2024-03-02T02:43:27.445Z,100.00
2024-03-02T02:45:55.918Z,100.00
2024-03-02T02:48:24.269Z,100.00
2024-03-02T02:50:52.577Z,100.00
2024-03-02T02:53:20.653Z,100.00
2024-03-02T02:55:48.833Z,100.00
2024-03-02T02:58:17.197Z,100.00
2024-03-02T03:00:45.520Z,100.00
2024-03-02T03:03:13.752Z,100.00
2024-03-02T03:05:41.949Z,100.00
2024-03-02T03:08:10.154Z,100.00
2024-03-02T03:10:38.401Z,100.00
2024-03-02T03:13:09.526Z,100.00
2024-03-02T03:15:38.039Z,100.00
2024-03-02T03:18:06.560Z,100.00
2024-03-02T03:20:35.153Z,100.00
2024-03-02T03:23:05.149Z,100.00
2024-03-02T03:25:33.239Z,100.00
2024-03-02T03:28:02.609Z,100.00
2024-03-02T03:30:30.906Z,100.00
2024-03-02T03:32:59.089Z,100.00
2024-03-02T03:35:27.259Z,100.00
2024-03-02T03:37:55.839Z,100.00
2024-03-02T03:40:23.914Z,100.00
2024-03-02T03:42:52.336Z,100.00
2024-03-02T03:45:21.535Z,100.00
2024-03-02T03:47:49.892Z,100.00
2024-03-02T03:50:18.137Z,100.00
2024-03-02T03:52:46.207Z,100.00
2024-03-02T03:55:15.107Z,100.00
2024-03-02T03:57:43.284Z,100.00
2024-03-02T04:00:12.661Z,100.00
2024-03-02T04:02:41.052Z,100.00
2024-03-02T04:05:12.625Z,100.00
2024-03-02T04:07:42.115Z,100.00
2024-03-02T04:10:11.673Z,100.00
2024-03-02T04:12:40.598Z,100.00
2024-03-02T04:15:09.738Z,100.00
2024-03-02T04:17:38.485Z,100.00
2024-03-02T04:20:08.054Z,100.00
2024-03-02T04:22:37.203Z,100.00
2024-03-02T04:25:09.068Z,100.00
2024-03-02T04:27:37.625Z,100.00
2024-03-02T04:30:07.079Z,100.00
2024-03-02T04:32:35.513Z,100.00
2024-03-02T04:35:03.788Z,100.00
2024-03-02T04:37:34.582Z,100.00
2024-03-02T04:40:02.860Z,100.00
2024-03-02T04:42:31.300Z,100.00
2024-03-02T04:44:59.446Z,100.00
2024-03-02T04:47:27.625Z,100.00
2024-03-02T04:49:55.990Z,100.00
2024-03-02T04:52:24.162Z,100.00
2024-03-02T04:55:11.280Z,100.00
2024-03-02T04:57:39.513Z,100.00
2024-03-02T05:00:10.145Z,100.00
2024-03-02T05:02:38.472Z,100.00
2024-03-02T05:05:07.445Z,100.00
2024-03-02T05:07:36.031Z,100.00
2024-03-02T05:10:04.713Z,100.00
2024-03-02T05:12:45.165Z,100.00
2024-03-02T05:15:15.132Z,100.00
2024-03-02T05:17:46.567Z,100.00
2024-03-02T05:20:15.131Z,100.00
2024-03-02T05:22:43.390Z,100.00
2024-03-02T05:25:12.145Z,100.00
2024-03-02T05:27:41.057Z,100.00
2024-03-02T05:30:10.108Z,100.00
2024-03-02T05:32:38.776Z,100.00
2024-03-02T05:35:07.737Z,100.00
2024-03-02T05:37:35.921Z,100.00
2024-03-02T05:40:04.710Z,100.00
2024-03-02T05:42:32.982Z,100.00
2024-03-02T05:45:01.177Z,100.00
2024-03-02T05:47:29.534Z,100.00
2024-03-02T05:49:57.999Z,100.00
2024-03-02T05:52:26.175Z,100.00
2024-03-02T05:54:54.600Z,100.00
2024-03-02T05:57:41.834Z,100.00
2024-03-02T06:00:10.455Z,100.00
2024-03-02T06:02:44.678Z,100.00
2024-03-02T06:05:12.948Z,100.00
2024-03-02T06:07:41.302Z,100.00
2024-03-02T06:10:13.888Z,100.00
2024-03-02T06:12:42.986Z,100.00
2024-03-02T06:15:12.329Z,100.00
2024-03-02T06:17:40.840Z,100.00
2024-03-02T06:20:10.034Z,100.00
2024-03-02T06:22:38.581Z,100.00
2024-03-02T06:25:07.408Z,100.00
2024-03-02T06:27:35.981Z,100.00
2024-03-02T06:30:05.479Z,100.00
2024-03-02T06:32:34.182Z,100.00
2024-03-02T06:35:02.742Z,100.00
2024-03-02T06:37:31.035Z,100.00
2024-03-02T06:39:59.322Z,100.00
2024-03-02T06:42:27.778Z,100.00
2024-03-02T06:44:55.923Z,100.00
2024-03-02T06:47:24.197Z,100.00
2024-03-02T06:49:52.681Z,100.00
2024-03-02T06:52:24.896Z,100.00
2024-03-02T06:54:53.684Z,100.00
2024-03-02T06:57:22.411Z,100.00
2024-03-02T06:59:52.746Z,100.00
2024-03-02T07:02:21.646Z,100.00
2024-03-02T07:04:50.165Z,100.00
2024-03-02T07:07:18.773Z,100.00
2024-03-02T07:09:47.186Z,100.00
2024-03-02T07:12:15.638Z,100.00
2024-03-02T07:15:12.881Z,100.00
2024-03-02T07:17:41.249Z,100.00
2024-03-02T07:20:10.264Z,100.00
2024-03-02T07:22:41.079Z,100.00
2024-03-02T07:26:54.596Z,100.00
2024-03-02T07:27:58.862Z,100.00
2024-03-02T07:30:27.266Z,100.00
2024-03-02T07:32:55.542Z,100.00
2024-03-02T07:35:27.964Z,100.00
2024-03-02T07:37:56.854Z,100.00
2024-03-02T07:40:25.525Z,100.00
2024-03-02T07:42:53.820Z,100.00
2024-03-02T07:45:22.251Z,100.00
2024-03-02T07:47:51.376Z,100.00
2024-03-02T07:50:19.769Z,100.00
2024-03-02T07:52:47.852Z,100.00
2024-03-02T07:55:16.036Z,100.00
2024-03-02T07:57:44.399Z,100.00
2024-03-02T08:00:13.169Z,100.00
2024-03-02T08:02:41.643Z,100.00
2024-03-02T08:05:10.326Z,100.00
2024-03-02T08:07:38.806Z,100.00
2024-03-02T08:10:07.572Z,100.00
2024-03-02T08:12:35.886Z,100.00
2024-03-02T08:15:05.343Z,100.00
2024-03-02T08:17:36.013Z,100.00
2024-03-02T08:20:07.123Z,100.00
2024-03-02T08:22:35.209Z,100.00
2024-03-02T08:25:03.747Z,100.00
2024-03-02T08:27:33.710Z,100.00
2024-03-02T08:30:02.136Z,100.00
2024-03-02T08:32:30.411Z,100.00
2024-03-02T08:34:58.632Z,100.00
2024-03-02T08:37:26.701Z,100.00
2024-03-02T08:39:55.037Z,100.00
2024-03-02T08:42:23.788Z,100.00
2024-03-02T08:44:52.046Z,100.00
2024-03-02T08:47:20.210Z,100.00
2024-03-02T08:49:48.281Z,100.00
2024-03-02T08:52:16.356Z,100.00
2024-03-02T08:54:44.440Z,100.00
2024-03-02T08:57:12.701Z,100.00
2024-03-02T08:59:41.078Z,100.00
2024-03-02T09:02:09.247Z,100.00
2024-03-02T09:04:37.419Z,100.00
2024-03-02T09:07:05.680Z,100.00
2024-03-02T09:09:34.014Z,100.00
2024-03-02T09:12:02.396Z,100.00
2024-03-02T09:14:30.621Z,100.00
2024-03-02T09:16:58.912Z,100.00
2024-03-02T09:19:27.173Z,100.00
2024-03-02T09:21:56.946Z,100.00
2024-03-02T09:24:25.869Z,100.00
2024-03-02T09:26:54.062Z,100.00
2024-03-02T09:29:22.382Z,99.80
2024-03-02T09:31:52.127Z,99.37
2024-03-02T09:34:20.435Z,98.78
2024-03-02T09:36:48.684Z,98.34
2024-03-02T09:39:17.159Z,97.66
2024-03-02T09:41:45.533Z,97.21
2024-03-02T09:44:13.913Z,96.90
2024-03-02T09:46:45.326Z,96.94
2024-03-02T09:49:14.149Z,96.40
2024-03-02T09:51:48.540Z,96.08
2024-03-02T09:54:22.232Z,96.07
2024-03-02T09:56:52.541Z,96.10
2024-03-02T09:59:22.028Z,95.90
2024-03-02T10:02:01.268Z,95.86
2024-03-02T10:04:32.307Z,95.42
2024-03-02T10:07:20.010Z,95.01
2024-03-02T10:09:53.326Z,94.96
2024-03-02T10:12:22.313Z,94.52
2024-03-02T10:14:52.929Z,94.38
2024-03-02T10:17:21.090Z,93.36
2024-03-02T10:19:49.258Z,92.98
2024-03-02T10:22:17.436Z,92.61
2024-03-02T10:24:47.058Z,92.02
2024-03-02T10:27:24.160Z,91.83
2024-03-02T10:29:52.491Z,91.83
2024-03-02T10:32:23.946Z,90.99
2024-03-02T10:34:52.127Z,90.50
2024-03-02T10:37:23.069Z,90.60
2024-03-02T10:39:51.360Z,90.12
2024-03-02T10:42:20.691Z,89.59
2024-03-02T10:44:50.040Z,89.13
2024-03-02T10:47:20.761Z,88.98
2024-03-02T10:49:53.056Z,88.76
2024-03-02T10:52:21.199Z,87.92
2024-03-02T10:54:49.717Z,87.55
2024-03-02T10:57:18.471Z,87.30
2024-03-02T10:59:58.761Z,86.91
2024-03-02T11:02:29.043Z,86.56
2024-03-02T11:04:57.562Z,86.39
2024-03-02T11:07:26.532Z,85.78
2024-03-02T11:10:10.205Z,85.71
2024-03-02T11:13:03.411Z,85.07
2024-03-02T11:15:31.931Z,84.90
2024-03-02T11:18:00.498Z,84.79
2024-03-02T11:20:30.162Z,84.76
2024-03-02T11:22:58.256Z,84.16
2024-03-02T11:25:29.614Z,83.86
2024-03-02T11:27:57.754Z,83.82
2024-03-02T11:30:36.121Z,83.37
2024-03-02T11:33:13.397Z,83.09
2024-03-02T11:35:49.661Z,82.66
2024-03-02T11:38:19.745Z,82.73
2024-03-02T11:40:48.175Z,82.44
2024-03-02T11:43:16.713Z,82.50
2024-03-02T11:45:45.848Z,82.35
2024-03-02T11:48:17.765Z,82.17
2024-03-02T11:50:51.839Z,82.05
2024-03-02T11:53:21.797Z,81.77
2024-03-02T11:55:50.770Z,81.77
2024-03-02T11:58:25.090Z,81.62
2024-03-02T12:00:54.077Z,81.29
2024-03-02T12:03:27.267Z,81.15
2024-03-02T12:05:56.731Z,81.13
2024-03-02T12:08:25.897Z,80.76
2024-03-02T12:11:02.712Z,80.59
2024-03-02T12:13:32.481Z,80.10
2024-03-02T12:16:01.144Z,80.10
2024-03-02T12:18:29.773Z,80.06
2024-03-02T12:20:59.999Z,79.65
2024-03-02T12:23:28.879Z,79.16
2024-03-02T12:25:57.833Z,79.28
2024-03-02T12:28:26.416Z,79.31
2024-03-02T12:30:54.903Z,78.88
2024-03-02T12:33:24.301Z,78.27
2024-03-02T12:35:52.607Z,78.57
2024-03-02T12:38:21.175Z,78.51
2024-03-02T12:40:50.982Z,78.08
2024-03-02T12:43:19.539Z,77.57
2024-03-02T12:45:48.194Z,77.16
2024-03-02T12:48:16.611Z,77.07
2024-03-02T12:50:45.664Z,76.78
2024-03-02T12:53:17.983Z,76.53
2024-03-02T12:55:46.461Z,76.43
2024-03-02T12:58:20.009Z,76.56
2024-03-02T13:00:48.724Z,76.42
2024-03-02T13:03:21.162Z,76.36
2024-03-02T13:05:51.272Z,75.86
2024-03-02T13:08:19.326Z,75.68
2024-03-02T13:10:47.824Z,75.67
2024-03-02T13:13:16.265Z,75.62
2024-03-02T13:15:46.441Z,75.74
2024-03-02T13:18:14.900Z,75.78
2024-03-02T13:20:43.124Z,76.16
2024-03-02T13:23:11.605Z,76.37
2024-03-02T13:25:39.778Z,76.17
2024-03-02T13:28:08.844Z,75.77
2024-03-02T13:30:37.268Z,75.74
2024-03-02T13:33:06.042Z,75.66
2024-03-02T13:35:34.212Z,75.97
2024-03-02T13:38:02.587Z,76.02
2024-03-02T13:40:32.090Z,76.10
2024-03-02T13:43:00.290Z,76.21
2024-03-02T13:45:29.289Z,76.42
2024-03-02T13:47:57.636Z,76.46
2024-03-02T13:50:25.802Z,76.61
2024-03-02T13:52:53.880Z,76.87
2024-03-02T13:55:22.043Z,76.98
2024-03-02T13:57:51.453Z,77.13
2024-03-02T14:00:20.336Z,77.26
2024-03-02T14:02:51.071Z,77.17
2024-03-02T14:05:20.668Z,77.42
2024-03-02T14:07:48.745Z,77.76
2024-03-02T14:10:17.267Z,77.77
2024-03-02T14:12:45.535Z,77.92
2024-03-02T14:15:13.772Z,78.14
2024-03-02T14:17:42.070Z,78.20
2024-03-02T14:20:14.738Z,78.32
2024-03-02T14:22:42.898Z,78.35
2024-03-02T14:25:11.302Z,78.34
2024-03-02T14:30:12.846Z,78.23
2024-03-02T14:32:41.037Z,78.26
2024-03-02T14:35:12.819Z,78.48
2024-03-02T14:37:41.151Z,78.44
2024-03-02T14:40:11.092Z,78.60
2024-03-02T14:42:39.472Z,78.56
2024-03-02T14:45:07.816Z,78.65
2024-03-02T14:47:36.785Z,78.81
2024-03-02T14:50:07.552Z,78.95
2024-03-02T14:52:35.814Z,79.10
2024-03-02T14:55:05.540Z,79.28
2024-03-02T14:57:33.725Z,79.34
2024-03-02T15:00:01.971Z,79.50
2024-03-02T15:02:30.357Z,79.54
2024-03-02T15:04:58.734Z,79.69
2024-03-02T15:07:27.214Z,79.90
2024-03-02T15:09:56.340Z,79.92
2024-03-02T15:12:24.969Z,80.09
2024-03-02T15:14:53.160Z,80.29
2024-03-02T15:17:21.435Z,80.35
2024-03-02T15:19:49.616Z,80.61
2024-03-02T15:22:18.399Z,80.73
2024-03-02T15:24:46.602Z,80.82
2024-03-02T15:27:14.747Z,80.99
2024-03-02T15:29:42.921Z,81.18
2024-03-02T15:32:11.286Z,81.36
2024-03-02T15:34:39.638Z,81.66
2024-03-02T15:37:07.943Z,81.69
2024-03-02T15:39:36.286Z,81.89
2024-03-02T15:42:06.160Z,82.01
2024-03-02T15:44:34.414Z,82.30
2024-03-02T15:47:02.881Z,82.40
2024-03-02T15:49:33.305Z,82.52
2024-03-02T15:52:04.873Z,82.54
2024-03-02T15:54:33.256Z,82.78
2024-03-02T15:57:01.613Z,82.93
2024-03-02T15:59:29.786Z,83.01
2024-03-02T16:01:59.805Z,83.13
2024-03-02T16:04:28.082Z,83.31
2024-03-02T16:06:56.385Z,83.41
2024-03-02T16:09:24.672Z,83.55
2024-03-02T16:11:53.415Z,83.75
2024-03-02T16:14:21.720Z,84.00
2024-03-02T16:16:49.860Z,84.19
2024-03-02T16:19:25.764Z,84.47
2024-03-02T16:22:01.146Z,84.45
2024-03-02T16:24:29.593Z,84.70
2024-03-02T16:26:58.326Z,85.04
2024-03-02T16:29:26.499Z,85.01
2024-03-02T16:31:54.673Z,85.32
2024-03-02T16:34:22.978Z,85.36
2024-03-02T16:36:51.273Z,85.63
2024-03-02T16:39:19.591Z,85.81
2024-03-02T16:41:48.438Z,86.18
2024-03-02T16:44:16.964Z,86.25
2024-03-02T16:46:46.688Z,86.33
2024-03-02T16:49:15.083Z,86.63
2024-03-02T16:51:44.346Z,86.84
2024-03-02T16:54:12.619Z,87.05
2024-03-02T16:56:44.402Z,87.36
2024-03-02T16:59:12.666Z,87.55
2024-03-02T17:01:41.177Z,87.57
2024-03-02T17:04:09.658Z,87.63
2024-03-02T17:06:38.042Z,87.93
2024-03-02T17:09:06.777Z,88.09
2024-03-02T17:11:36.537Z,88.19
2024-03-02T17:14:05.081Z,88.34
2024-03-02T17:16:33.138Z,88.55
2024-03-02T17:19:01.831Z,89.04
2024-03-02T17:21:30.514Z,89.07
2024-03-02T17:23:59.663Z,89.12
2024-03-02T17:26:27.982Z,89.46
2024-03-02T17:28:56.264Z,89.55
2024-03-02T17:31:24.428Z,89.93
2024-03-02T17:33:52.721Z,90.17
2024-03-02T17:36:20.975Z,90.44
2024-03-02T17:38:49.263Z,90.42
2024-03-02T17:41:17.625Z,90.67
2024-03-02T17:43:45.900Z,90.93
2024-03-02T17:46:14.158Z,91.07
2024-03-02T17:48:42.891Z,91.20
2024-03-02T17:51:11.336Z,91.15
2024-03-02T17:53:39.620Z,91.27
2024-03-02T17:56:10.964Z,91.25
2024-03-02T17:58:39.574Z,91.29
2024-03-02T18:01:07.885Z,91.20
2024-03-02T18:03:36.495Z,91.34
2024-03-02T18:06:05.870Z,91.51
2024-03-02T18:08:36.056Z,91.41
2024-03-02T18:11:08.018Z,91.53
2024-03-02T18:13:36.384Z,91.52
2024-03-02T18:16:06.035Z,91.69
2024-03-02T18:18:34.326Z,91.87
2024-03-02T18:21:03.859Z,91.81
2024-03-02T18:23:32.545Z,91.93
2024-03-02T18:26:01.133Z,92.00
2024-03-02T18:28:29.354Z,92.19
2024-03-02T18:30:59.757Z,92.17
2024-03-02T18:33:28.052Z,92.13
2024-03-02T18:35:56.774Z,92.38
2024-03-02T18:38:24.952Z,92.43
2024-03-02T18:40:53.118Z,92.54
2024-03-02T18:43:21.498Z,92.46
2024-03-02T18:45:49.822Z,92.53
2024-03-02T18:48:18.092Z,92.61
2024-03-02T18:50:46.318Z,92.65
2024-03-02T18:53:14.804Z,92.64
2024-03-02T18:55:42.972Z,92.76
2024-03-02T18:58:11.073Z,92.87
2024-03-02T19:00:39.767Z,92.84
2024-03-02T19:03:11.002Z,93.05
2024-03-02T19:05:39.765Z,92.88
2024-03-02T19:08:09.354Z,92.72
2024-03-02T19:10:37.659Z,92.95
2024-03-02T19:13:07.310Z,93.03
2024-03-02T19:15:35.681Z,93.14
2024-03-02T19:18:04.612Z,93.10
2024-03-02T19:20:33.099Z,93.10
2024-03-02T19:23:01.711Z,93.31
2024-03-02T19:25:29.974Z,93.22
2024-03-02T19:27:58.465Z,93.49
2024-03-02T19:30:27.218Z,93.44
2024-03-02T19:32:55.645Z,93.71
2024-03-02T19:35:23.875Z,93.63
2024-03-02T19:37:53.272Z,93.54
2024-03-02T19:40:21.442Z,93.67
2024-03-02T19:42:49.674Z,93.88
2024-03-02T19:45:18.046Z,94.20
2024-03-02T19:47:46.170Z,94.33
2024-03-02T19:50:15.531Z,94.44
2024-03-02T19:52:43.848Z,94.58
2024-03-02T19:55:14.172Z,94.76
2024-03-02T19:57:46.115Z,94.81
2024-03-02T20:00:15.807Z,94.78
2024-03-02T20:02:44.030Z,94.76
2024-03-02T20:05:13.438Z,95.02
2024-03-02T20:07:42.749Z,94.99
2024-03-02T20:10:12.624Z,95.17
2024-03-02T20:12:41.101Z,95.21
2024-03-02T20:15:21.068Z,95.13
2024-03-02T20:17:49.374Z,95.12
2024-03-02T20:20:18.011Z,95.20
2024-03-02T20:22:47.205Z,95.28
2024-03-02T20:25:17.110Z,95.33
2024-03-02T20:27:46.479Z,95.33
2024-03-02T20:30:15.119Z,95.47
2024-03-02T20:32:43.836Z,95.56
2024-03-02T20:35:12.786Z,95.54
2024-03-02T20:37:41.369Z,95.69
2024-03-02T20:40:10.384Z,95.71
2024-03-02T20:42:39.316Z,95.79
2024-03-02T20:45:08.661Z,95.75
2024-03-02T20:47:36.830Z,95.66
2024-03-02T20:50:05.637Z,95.62
2024-03-02T20:52:33.987Z,95.66
2024-03-02T20:55:02.134Z,95.60
2024-03-02T20:57:30.534Z,95.71
2024-03-02T20:59:58.816Z,95.63
2024-03-02T21:02:27.551Z,95.79
2024-03-02T21:04:55.888Z,95.84
2024-03-02T21:07:24.072Z,95.99
2024-03-02T21:09:53.978Z,96.21
2024-03-02T21:12:22.344Z,96.37
2024-03-02T21:14:50.608Z,96.61
2024-03-02T21:17:18.775Z,96.66
2024-03-02T21:19:48.487Z,96.89
2024-03-02T21:22:16.988Z,96.87
2024-03-02T21:24:47.348Z,96.99
2024-03-02T21:27:18.519Z,97.06
2024-03-02T21:29:48.303Z,97.19
2024-03-02T21:32:16.628Z,97.18
2024-03-02T21:34:44.800Z,97.28
2024-03-02T21:37:13.152Z,97.34
2024-03-02T21:39:47.022Z,97.49
2024-03-02T21:42:15.965Z,97.65
2024-03-02T21:44:44.448Z,97.70
2024-03-02T21:47:13.852Z,97.76
2024-03-02T21:49:42.027Z,97.67
2024-03-02T21:52:10.640Z,97.81
2024-03-02T21:54:38.899Z,97.80
2024-03-02T21:57:10.637Z,97.64
2024-03-02T21:59:40.547Z,97.45
2024-03-02T22:02:08.902Z,97.54
2024-03-02T22:04:37.511Z,97.50
2024-03-02T22:07:05.808Z,97.45
2024-03-02T22:09:35.562Z,97.22
2024-03-02T22:12:04.018Z,97.05
2024-03-02T22:14:32.248Z,97.13
2024-03-02T22:17:00.549Z,97.18
2024-03-02T22:19:28.911Z,97.16
2024-03-02T22:21:57.204Z,97.26
2024-03-02T22:24:26.265Z,97.23
2024-03-02T22:26:54.451Z,97.34
2024-03-02T22:29:22.612Z,97.55
2024-03-02T22:31:50.992Z,97.58
2024-03-02T22:34:19.400Z,97.77
2024-03-02T22:36:47.655Z,97.77
2024-03-02T22:39:15.814Z,97.92
2024-03-02T22:41:44.396Z,97.96
2024-03-02T22:44:12.676Z,98.33
2024-03-02T22:46:40.841Z,98.34
2024-03-02T22:49:09.038Z,98.70
2024-03-02T22:51:37.256Z,98.96
2024-03-02T22:54:05.469Z,99.10
2024-03-02T22:56:33.745Z,98.96
2024-03-02T22:59:02.339Z,98.91
2024-03-02T23:01:30.630Z,99.02
2024-03-02T23:03:58.787Z,98.82
2024-03-02T23:06:27.866Z,98.64
2024-03-02T23:08:56.034Z,98.64
2024-03-02T23:11:24.439Z,98.15
2024-03-02T23:13:52.698Z,98.42
2024-03-02T23:16:20.888Z,98.70
2024-03-02T23:18:50.157Z,98.62
2024-03-02T23:21:18.442Z,98.50
2024-03-02T23:23:46.605Z,98.60
2024-03-02T23:26:14.791Z,99.00
2024-03-02T23:28:42.954Z,99.17
2024-03-02T23:31:11.201Z,99.84
2024-03-02T23:33:40.078Z,99.66
2024-03-02T23:36:08.286Z,99.95
2024-03-02T23:38:36.366Z,100.00
2024-03-02T23:41:16.220Z,100.00
2024-03-02T23:43:44.387Z,100.00
2024-03-02T23:46:12.900Z,100.00
2024-03-02T23:48:41.267Z,100.00
2024-03-02T23:51:09.510Z,100.00
2024-03-02T23:53:37.684Z,100.00
2024-03-02T23:56:13.740Z,100.00
2024-03-02T23:58:42.225Z,100.00
